sensor_id;sensor_type;location;lat;lon;timestamp;temperature;humidity
12481;DHT22;6305;48.398;11.762;2022-09-20T00:01:41;8.10;99.90
12481;DHT22;6305;48.398;11.762;2022-09-20T00:04:08;8.20;99.90
12481;DHT22;6305;48.398;11.762;2022-09-20T00:06:35;8.20;99.90
12481;DHT22;6305;48.398;11.762;2022-09-20T00:09:02;8.20;99.90
12481;DHT22;6305;48.398;11.762;2022-09-20T00:11:30;8.20;99.90
12481;DHT22;6305;48.398;11.762;2022-09-20T00:13:59;8.20;99.90
12481;DHT22;6305;48.398;11.762;2022-09-20T00:16:29;8.10;99.90
12481;DHT22;6305;48.398;11.762;2022-09-20T00:18:57;8.10;99.90
12481;DHT22;6305;48.398;11.762;2022-09-20T00:21:25;8.10;99.90
12481;DHT22;6305;48.398;11.762;2022-09-20T00:23:53;8.10;99.90
12481;DHT22;6305;48.398;11.762;2022-09-20T00:26:21;8.10;99.90
12481;DHT22;6305;48.398;11.762;2022-09-20T00:28:47;8.10;99.90
12481;DHT22;6305;48.398;11.762;2022-09-20T00:31:15;8.10;99.90
12481;DHT22;6305;48.398;11.762;2022-09-20T00:33:43;8.00;99.90
12481;DHT22;6305;48.398;11.762;2022-09-20T00:36:27;8.10;99.90
12481;DHT22;6305;48.398;11.762;2022-09-20T00:38:55;8.00;99.90
12481;DHT22;6305;48.398;11.762;2022-09-20T00:41:22;8.00;99.90
12481;DHT22;6305;48.398;11.762;2022-09-20T00:43:48;7.90;99.90
12481;DHT22;6305;48.398;11.762;2022-09-20T00:46:21;7.90;99.90
12481;DHT22;6305;48.398;11.762;2022-09-20T00:48:51;7.90;99.90
12481;DHT22;6305;48.398;11.762;2022-09-20T00:51:23;7.80;99.90
12481;DHT22;6305;48.398;11.762;2022-09-20T00:53:54;7.80;99.90
12481;DHT22;6305;48.398;11.762;2022-09-20T00:56:25;7.80;99.90
12481;DHT22;6305;48.398;11.762;2022-09-20T00:59:04;7.70;99.90
12481;DHT22;6305;48.398;11.762;2022-09-20T01:01:32;7.70;99.90
12481;DHT22;6305;48.398;11.762;2022-09-20T01:04:01;7.70;99.90
12481;DHT22;6305;48.398;11.762;2022-09-20T01:06:29;7.60;99.90
12481;DHT22;6305;48.398;11.762;2022-09-20T01:08:57;7.60;99.90
12481;DHT22;6305;48.398;11.762;2022-09-20T01:11:27;7.60;99.90
12481;DHT22;6305;48.398;11.762;2022-09-20T01:13:54;7.70;99.90
12481;DHT22;6305;48.398;11.762;2022-09-20T01:16:22;7.70;99.90
12481;DHT22;6305;48.398;11.762;2022-09-20T01:18:51;7.60;99.90
12481;DHT22;6305;48.398;11.762;2022-09-20T01:21:20;7.70;99.90
12481;DHT22;6305;48.398;11.762;2022-09-20T01:23:51;7.70;99.90
12481;DHT22;6305;48.398;11.762;2022-09-20T01:26:44;7.70;99.90
12481;DHT22;6305;48.398;11.762;2022-09-20T01:29:27;7.70;99.90
12481;DHT22;6305;48.398;11.762;2022-09-20T01:31:57;7.70;99.90
12481;DHT22;6305;48.398;11.762;2022-09-20T01:34:28;7.70;99.90
12481;DHT22;6305;48.398;11.762;2022-09-20T01:37:04;7.70;99.90
12481;DHT22;6305;48.398;11.762;2022-09-20T01:39:37;7.70;99.90
12481;DHT22;6305;48.398;11.762;2022-09-20T01:42:12;7.70;99.90
12481;DHT22;6305;48.398;11.762;2022-09-20T01:44:46;7.70;99.90
12481;DHT22;6305;48.398;11.762;2022-09-20T01:47:22;7.70;99.90
12481;DHT22;6305;48.398;11.762;2022-09-20T01:49:55;7.80;99.90
12481;DHT22;6305;48.398;11.762;2022-09-20T01:55:38;7.80;99.90
12481;DHT22;6305;48.398;11.762;2022-09-20T01:58:58;7.80;99.90
12481;DHT22;6305;48.398;11.762;2022-09-20T02:02:00;7.80;99.90
12481;DHT22;6305;48.398;11.762;2022-09-20T02:05:03;7.80;99.90
12481;DHT22;6305;48.398;11.762;2022-09-20T02:07:54;7.80;99.90
12481;DHT22;6305;48.398;11.762;2022-09-20T02:10:50;7.80;99.90
12481;DHT22;6305;48.398;11.762;2022-09-20T02:13:28;7.70;99.90
12481;DHT22;6305;48.398;11.762;2022-09-20T02:19:05;7.80;99.90
12481;DHT22;6305;48.398;11.762;2022-09-20T02:21:38;7.80;99.90
12481;DHT22;6305;48.398;11.762;2022-09-20T02:24:17;7.80;99.90
12481;DHT22;6305;48.398;11.762;2022-09-20T02:26:54;7.80;99.90
12481;DHT22;6305;48.398;11.762;2022-09-20T02:29:31;7.80;99.90
12481;DHT22;6305;48.398;11.762;2022-09-20T02:32:32;7.80;99.90
12481;DHT22;6305;48.398;11.762;2022-09-20T02:35:18;7.80;99.90
12481;DHT22;6305;48.398;11.762;2022-09-20T02:37:56;7.80;99.90
12481;DHT22;6305;48.398;11.762;2022-09-20T02:40:59;7.80;99.90
12481;DHT22;6305;48.398;11.762;2022-09-20T02:43:34;7.80;99.90
12481;DHT22;6305;48.398;11.762;2022-09-20T02:46:09;7.80;99.90
12481;DHT22;6305;48.398;11.762;2022-09-20T02:48:42;7.90;99.90
12481;DHT22;6305;48.398;11.762;2022-09-20T02:51:19;7.90;99.90
12481;DHT22;6305;48.398;11.762;2022-09-20T02:53:54;7.90;99.90
12481;DHT22;6305;48.398;11.762;2022-09-20T02:56:29;7.90;99.90
12481;DHT22;6305;48.398;11.762;2022-09-20T02:59:04;8.00;99.90
12481;DHT22;6305;48.398;11.762;2022-09-20T03:01:41;8.00;99.90
12481;DHT22;6305;48.398;11.762;2022-09-20T03:04:20;8.00;99.90
12481;DHT22;6305;48.398;11.762;2022-09-20T03:06:54;8.00;99.90
12481;DHT22;6305;48.398;11.762;2022-09-20T03:09:29;8.00;99.90
12481;DHT22;6305;48.398;11.762;2022-09-20T03:12:03;8.00;99.90
12481;DHT22;6305;48.398;11.762;2022-09-20T03:14:37;8.10;99.90
12481;DHT22;6305;48.398;11.762;2022-09-20T03:17:20;8.00;99.90
12481;DHT22;6305;48.398;11.762;2022-09-20T03:20:02;8.00;99.90
12481;DHT22;6305;48.398;11.762;2022-09-20T03:22:45;8.00;99.90
12481;DHT22;6305;48.398;11.762;2022-09-20T03:25:45;8.00;99.90
12481;DHT22;6305;48.398;11.762;2022-09-20T03:28:25;8.00;99.90
12481;DHT22;6305;48.398;11.762;2022-09-20T03:31:06;8.00;99.90
12481;DHT22;6305;48.398;11.762;2022-09-20T03:33:41;8.00;99.90
12481;DHT22;6305;48.398;11.762;2022-09-20T03:36:20;8.00;99.90
12481;DHT22;6305;48.398;11.762;2022-09-20T03:39:21;8.00;99.90
12481;DHT22;6305;48.398;11.762;2022-09-20T03:42:12;8.00;99.90
12481;DHT22;6305;48.398;11.762;2022-09-20T03:44:56;8.10;99.90
12481;DHT22;6305;48.398;11.762;2022-09-20T03:47:40;8.10;99.90
12481;DHT22;6305;48.398;11.762;2022-09-20T03:50:20;8.10;99.90
12481;DHT22;6305;48.398;11.762;2022-09-20T03:53:04;8.00;99.90
12481;DHT22;6305;48.398;11.762;2022-09-20T03:55:57;7.90;99.90
12481;DHT22;6305;48.398;11.762;2022-09-20T03:58:38;7.90;99.90
12481;DHT22;6305;48.398;11.762;2022-09-20T04:01:26;7.90;99.90
12481;DHT22;6305;48.398;11.762;2022-09-20T04:04:02;7.80;99.90
12481;DHT22;6305;48.398;11.762;2022-09-20T04:06:48;7.80;99.90
12481;DHT22;6305;48.398;11.762;2022-09-20T04:09:38;7.90;99.90
12481;DHT22;6305;48.398;11.762;2022-09-20T04:12:20;7.90;99.90
12481;DHT22;6305;48.398;11.762;2022-09-20T04:14:56;7.90;99.90
12481;DHT22;6305;48.398;11.762;2022-09-20T04:17:34;7.80;99.90
12481;DHT22;6305;48.398;11.762;2022-09-20T04:20:12;7.90;99.90
12481;DHT22;6305;48.398;11.762;2022-09-20T04:22:39;7.80;99.90
12481;DHT22;6305;48.398;11.762;2022-09-20T04:25:13;7.80;99.90
12481;DHT22;6305;48.398;11.762;2022-09-20T04:27:45;7.90;99.90
12481;DHT22;6305;48.398;11.762;2022-09-20T04:30:17;7.90;99.90
12481;DHT22;6305;48.398;11.762;2022-09-20T04:32:48;7.90;99.90
12481;DHT22;6305;48.398;11.762;2022-09-20T04:35:28;7.90;99.90
12481;DHT22;6305;48.398;11.762;2022-09-20T04:38:18;7.90;99.90
12481;DHT22;6305;48.398;11.762;2022-09-20T04:41:16;7.90;99.90
12481;DHT22;6305;48.398;11.762;2022-09-20T04:44:13;7.90;99.90
12481;DHT22;6305;48.398;11.762;2022-09-20T04:50:16;8.00;99.90
12481;DHT22;6305;48.398;11.762;2022-09-20T04:53:10;8.00;99.90
12481;DHT22;6305;48.398;11.762;2022-09-20T04:55:54;8.00;99.90
12481;DHT22;6305;48.398;11.762;2022-09-20T04:58:48;8.00;99.90
12481;DHT22;6305;48.398;11.762;2022-09-20T05:04:57;8.10;99.90
12481;DHT22;6305;48.398;11.762;2022-09-20T05:07:55;8.10;99.90
12481;DHT22;6305;48.398;11.762;2022-09-20T05:10:40;8.10;99.90
12481;DHT22;6305;48.398;11.762;2022-09-20T05:13:18;8.20;99.90
12481;DHT22;6305;48.398;11.762;2022-09-20T05:15:56;8.20;99.90
12481;DHT22;6305;48.398;11.762;2022-09-20T05:18:52;8.20;99.90
12481;DHT22;6305;48.398;11.762;2022-09-20T05:21:44;8.20;99.90
12481;DHT22;6305;48.398;11.762;2022-09-20T05:24:22;8.20;99.90
12481;DHT22;6305;48.398;11.762;2022-09-20T05:27:05;8.20;99.90
12481;DHT22;6305;48.398;11.762;2022-09-20T05:29:40;8.20;99.90
12481;DHT22;6305;48.398;11.762;2022-09-20T05:32:20;8.30;99.90
12481;DHT22;6305;48.398;11.762;2022-09-20T05:34:51;8.30;99.90
12481;DHT22;6305;48.398;11.762;2022-09-20T05:37:34;8.30;99.90
12481;DHT22;6305;48.398;11.762;2022-09-20T05:40:14;8.30;99.90
12481;DHT22;6305;48.398;11.762;2022-09-20T05:42:47;8.30;99.90
12481;DHT22;6305;48.398;11.762;2022-09-20T05:45:46;8.30;99.90
12481;DHT22;6305;48.398;11.762;2022-09-20T05:48:19;8.30;99.90
12481;DHT22;6305;48.398;11.762;2022-09-20T05:50:54;8.30;99.90
12481;DHT22;6305;48.398;11.762;2022-09-20T05:53:49;8.40;99.90
12481;DHT22;6305;48.398;11.762;2022-09-20T05:56:26;8.50;99.90
12481;DHT22;6305;48.398;11.762;2022-09-20T05:59:17;8.60;99.90
12481;DHT22;6305;48.398;11.762;2022-09-20T06:02:02;8.70;99.90
12481;DHT22;6305;48.398;11.762;2022-09-20T06:04:38;8.70;99.90
12481;DHT22;6305;48.398;11.762;2022-09-20T06:07:17;8.80;99.90
12481;DHT22;6305;48.398;11.762;2022-09-20T06:10:11;8.80;99.90
12481;DHT22;6305;48.398;11.762;2022-09-20T06:12:50;8.80;99.90
12481;DHT22;6305;48.398;11.762;2022-09-20T06:15:24;8.90;99.90
12481;DHT22;6305;48.398;11.762;2022-09-20T06:17:56;8.90;99.90
12481;DHT22;6305;48.398;11.762;2022-09-20T06:20:29;9.00;99.90
12481;DHT22;6305;48.398;11.762;2022-09-20T06:22:59;9.00;99.90
12481;DHT22;6305;48.398;11.762;2022-09-20T06:25:36;9.10;99.90
12481;DHT22;6305;48.398;11.762;2022-09-20T06:28:12;9.10;99.90
12481;DHT22;6305;48.398;11.762;2022-09-20T06:30:42;9.00;99.90
12481;DHT22;6305;48.398;11.762;2022-09-20T06:33:14;9.00;99.90
12481;DHT22;6305;48.398;11.762;2022-09-20T06:35:45;9.00;99.90
12481;DHT22;6305;48.398;11.762;2022-09-20T06:38:25;8.90;99.90
12481;DHT22;6305;48.398;11.762;2022-09-20T06:41:15;9.00;99.90
12481;DHT22;6305;48.398;11.762;2022-09-20T06:43:55;9.10;99.90
12481;DHT22;6305;48.398;11.762;2022-09-20T06:46:23;9.30;99.90
12481;DHT22;6305;48.398;11.762;2022-09-20T06:48:50;9.50;99.90
12481;DHT22;6305;48.398;11.762;2022-09-20T06:51:17;9.70;99.90
12481;DHT22;6305;48.398;11.762;2022-09-20T06:53:43;10.00;99.90
12481;DHT22;6305;48.398;11.762;2022-09-20T06:56:16;10.20;99.90
12481;DHT22;6305;48.398;11.762;2022-09-20T06:58:44;10.30;99.90
12481;DHT22;6305;48.398;11.762;2022-09-20T07:01:10;10.40;99.90
12481;DHT22;6305;48.398;11.762;2022-09-20T07:03:38;10.40;99.90
12481;DHT22;6305;48.398;11.762;2022-09-20T07:06:05;10.60;99.90
12481;DHT22;6305;48.398;11.762;2022-09-20T07:08:31;10.80;99.90
12481;DHT22;6305;48.398;11.762;2022-09-20T07:11:02;10.80;99.90
12481;DHT22;6305;48.398;11.762;2022-09-20T07:13:30;10.80;99.90
12481;DHT22;6305;48.398;11.762;2022-09-20T07:16:01;10.90;99.90
12481;DHT22;6305;48.398;11.762;2022-09-20T07:18:28;11.10;99.90
12481;DHT22;6305;48.398;11.762;2022-09-20T07:20:55;11.30;99.90
12481;DHT22;6305;48.398;11.762;2022-09-20T07:23:23;11.40;99.90
12481;DHT22;6305;48.398;11.762;2022-09-20T07:25:50;11.60;99.90
12481;DHT22;6305;48.398;11.762;2022-09-20T07:28:16;11.70;99.90
12481;DHT22;6305;48.398;11.762;2022-09-20T07:30:46;11.80;99.90
12481;DHT22;6305;48.398;11.762;2022-09-20T07:33:14;11.70;99.90
12481;DHT22;6305;48.398;11.762;2022-09-20T07:35:44;11.70;99.90
12481;DHT22;6305;48.398;11.762;2022-09-20T07:38:11;11.60;99.90
12481;DHT22;6305;48.398;11.762;2022-09-20T07:40:37;11.50;99.90
12481;DHT22;6305;48.398;11.762;2022-09-20T07:43:04;11.40;99.90
12481;DHT22;6305;48.398;11.762;2022-09-20T07:45:31;11.60;99.90
12481;DHT22;6305;48.398;11.762;2022-09-20T07:48:01;12.20;99.90
12481;DHT22;6305;48.398;11.762;2022-09-20T07:50:29;12.70;99.90
12481;DHT22;6305;48.398;11.762;2022-09-20T07:52:56;13.20;99.90
12481;DHT22;6305;48.398;11.762;2022-09-20T07:55:23;13.70;99.90
12481;DHT22;6305;48.398;11.762;2022-09-20T07:57:50;14.00;99.90
12481;DHT22;6305;48.398;11.762;2022-09-20T08:00:19;14.20;99.90
12481;DHT22;6305;48.398;11.762;2022-09-20T08:02:45;14.70;99.90
12481;DHT22;6305;48.398;11.762;2022-09-20T08:05:14;14.60;99.90
12481;DHT22;6305;48.398;11.762;2022-09-20T08:07:40;14.30;99.90
12481;DHT22;6305;48.398;11.762;2022-09-20T08:10:08;14.00;99.90
12481;DHT22;6305;48.398;11.762;2022-09-20T08:12:35;13.90;99.90
12481;DHT22;6305;48.398;11.762;2022-09-20T08:15:02;13.90;99.90
12481;DHT22;6305;48.398;11.762;2022-09-20T08:17:28;14.20;99.90
12481;DHT22;6305;48.398;11.762;2022-09-20T08:19:55;16.00;99.90
12481;DHT22;6305;48.398;11.762;2022-09-20T08:22:23;18.20;99.90
12481;DHT22;6305;48.398;11.762;2022-09-20T08:24:50;20.70;96.00
12481;DHT22;6305;48.398;11.762;2022-09-20T08:27:17;22.40;88.00
12481;DHT22;6305;48.398;11.762;2022-09-20T08:29:44;22.50;72.40
12481;DHT22;6305;48.398;11.762;2022-09-20T08:32:11;20.50;69.50
12481;DHT22;6305;48.398;11.762;2022-09-20T08:34:37;19.00;74.30
12481;DHT22;6305;48.398;11.762;2022-09-20T08:37:05;18.10;84.20
12481;DHT22;6305;48.398;11.762;2022-09-20T08:39:33;19.10;88.70
12481;DHT22;6305;48.398;11.762;2022-09-20T08:42:07;19.60;85.00
12481;DHT22;6305;48.398;11.762;2022-09-20T08:44:42;20.40;76.60
12481;DHT22;6305;48.398;11.762;2022-09-20T08:47:17;20.70;75.60
12481;DHT22;6305;48.398;11.762;2022-09-20T08:49:44;20.70;75.30
12481;DHT22;6305;48.398;11.762;2022-09-20T08:52:15;20.10;71.90
12481;DHT22;6305;48.398;11.762;2022-09-20T08:54:44;19.00;73.60
12481;DHT22;6305;48.398;11.762;2022-09-20T08:57:14;18.20;78.20
12481;DHT22;6305;48.398;11.762;2022-09-20T08:59:41;18.40;81.50
12481;DHT22;6305;48.398;11.762;2022-09-20T09:02:14;18.40;83.10
12481;DHT22;6305;48.398;11.762;2022-09-20T09:04:41;18.20;81.70
12481;DHT22;6305;48.398;11.762;2022-09-20T09:07:09;17.40;85.30
12481;DHT22;6305;48.398;11.762;2022-09-20T09:09:40;16.50;91.50
12481;DHT22;6305;48.398;11.762;2022-09-20T09:12:18;16.10;95.60
12481;DHT22;6305;48.398;11.762;2022-09-20T09:14:46;15.70;97.00
12481;DHT22;6305;48.398;11.762;2022-09-20T09:17:21;15.00;98.90
12481;DHT22;6305;48.398;11.762;2022-09-20T09:19:49;14.50;99.90
12481;DHT22;6305;48.398;11.762;2022-09-20T09:22:23;14.30;99.90
12481;DHT22;6305;48.398;11.762;2022-09-20T09:25:15;14.40;99.90
12481;DHT22;6305;48.398;11.762;2022-09-20T09:27:57;14.70;99.90
12481;DHT22;6305;48.398;11.762;2022-09-20T09:30:27;15.70;99.90
12481;DHT22;6305;48.398;11.762;2022-09-20T09:33:24;17.00;99.50
12481;DHT22;6305;48.398;11.762;2022-09-20T09:35:59;19.00;93.60
12481;DHT22;6305;48.398;11.762;2022-09-20T09:38:31;20.80;79.80
12481;DHT22;6305;48.398;11.762;2022-09-20T09:40:59;21.60;71.70
12481;DHT22;6305;48.398;11.762;2022-09-20T09:43:29;23.50;67.90
12481;DHT22;6305;48.398;11.762;2022-09-20T09:46:16;25.30;55.60
12481;DHT22;6305;48.398;11.762;2022-09-20T09:48:46;26.10;51.90
12481;DHT22;6305;48.398;11.762;2022-09-20T09:51:16;26.10;47.10
12481;DHT22;6305;48.398;11.762;2022-09-20T09:53:44;25.20;48.40
12481;DHT22;6305;48.398;11.762;2022-09-20T09:59:26;22.50;48.50
12481;DHT22;6305;48.398;11.762;2022-09-20T10:02:02;21.40;51.40
12481;DHT22;6305;48.398;11.762;2022-09-20T10:04:40;20.70;52.00
12481;DHT22;6305;48.398;11.762;2022-09-20T10:07:15;21.80;52.10
12481;DHT22;6305;48.398;11.762;2022-09-20T10:09:56;23.10;50.20
12481;DHT22;6305;48.398;11.762;2022-09-20T10:12:47;24.10;46.50
12481;DHT22;6305;48.398;11.762;2022-09-20T10:15:27;25.70;44.90
12481;DHT22;6305;48.398;11.762;2022-09-20T10:20:55;22.60;44.90
12481;DHT22;6305;48.398;11.762;2022-09-20T10:23:43;22.90;48.30
12481;DHT22;6305;48.398;11.762;2022-09-20T10:26:34;25.00;47.30
12481;DHT22;6305;48.398;11.762;2022-09-20T10:29:08;27.00;43.00
12481;DHT22;6305;48.398;11.762;2022-09-20T10:31:48;28.00;41.70
12481;DHT22;6305;48.398;11.762;2022-09-20T10:37:20;28.90;37.40
12481;DHT22;6305;48.398;11.762;2022-09-20T10:40:01;27.80;37.10
12481;DHT22;6305;48.398;11.762;2022-09-20T10:42:35;26.70;39.80
12481;DHT22;6305;48.398;11.762;2022-09-20T10:45:27;27.70;38.70
12481;DHT22;6305;48.398;11.762;2022-09-20T10:48:03;26.70;37.20
12481;DHT22;6305;48.398;11.762;2022-09-20T10:50:36;26.50;37.90
12481;DHT22;6305;48.398;11.762;2022-09-20T10:53:24;25.90;39.90
12481;DHT22;6305;48.398;11.762;2022-09-20T10:56:04;25.40;40.90
12481;DHT22;6305;48.398;11.762;2022-09-20T10:59:04;26.20;40.90
12481;DHT22;6305;48.398;11.762;2022-09-20T11:01:39;28.30;37.80
12481;DHT22;6305;48.398;11.762;2022-09-20T11:04:34;29.20;36.70
12481;DHT22;6305;48.398;11.762;2022-09-20T11:07:10;28.90;34.60
12481;DHT22;6305;48.398;11.762;2022-09-20T11:09:41;25.90;36.10
12481;DHT22;6305;48.398;11.762;2022-09-20T11:12:13;23.80;39.40
12481;DHT22;6305;48.398;11.762;2022-09-20T11:14:46;22.10;41.80
12481;DHT22;6305;48.398;11.762;2022-09-20T11:17:17;20.70;43.40
12481;DHT22;6305;48.398;11.762;2022-09-20T11:19:53;19.80;45.20
12481;DHT22;6305;48.398;11.762;2022-09-20T11:22:24;19.00;46.70
12481;DHT22;6305;48.398;11.762;2022-09-20T11:24:57;18.90;48.70
12481;DHT22;6305;48.398;11.762;2022-09-20T11:27:30;19.90;47.90
12481;DHT22;6305;48.398;11.762;2022-09-20T11:30:02;20.40;48.00
12481;DHT22;6305;48.398;11.762;2022-09-20T11:32:33;22.60;46.90
12481;DHT22;6305;48.398;11.762;2022-09-20T11:35:16;24.80;42.70
12481;DHT22;6305;48.398;11.762;2022-09-20T11:37:48;26.70;38.20
12481;DHT22;6305;48.398;11.762;2022-09-20T11:40:25;27.80;36.20
12481;DHT22;6305;48.398;11.762;2022-09-20T11:42:54;28.70;35.60
12481;DHT22;6305;48.398;11.762;2022-09-20T11:45:23;29.90;33.10
12481;DHT22;6305;48.398;11.762;2022-09-20T11:47:53;29.70;32.50
12481;DHT22;6305;48.398;11.762;2022-09-20T11:50:46;30.00;32.70
12481;DHT22;6305;48.398;11.762;2022-09-20T11:53:29;30.30;32.20
12481;DHT22;6305;48.398;11.762;2022-09-20T11:56:06;29.40;31.90
12481;DHT22;6305;48.398;11.762;2022-09-20T11:58:43;27.40;33.70
12481;DHT22;6305;48.398;11.762;2022-09-20T12:01:16;25.10;36.70
12481;DHT22;6305;48.398;11.762;2022-09-20T12:03:51;23.70;38.90
12481;DHT22;6305;48.398;11.762;2022-09-20T12:06:28;24.40;40.20
12481;DHT22;6305;48.398;11.762;2022-09-20T12:08:59;25.30;37.10
12481;DHT22;6305;48.398;11.762;2022-09-20T12:11:30;25.80;37.50
12481;DHT22;6305;48.398;11.762;2022-09-20T12:14:02;27.10;35.90
12481;DHT22;6305;48.398;11.762;2022-09-20T12:16:38;27.70;33.80
12481;DHT22;6305;48.398;11.762;2022-09-20T12:19:07;28.10;32.90
12481;DHT22;6305;48.398;11.762;2022-09-20T12:22:17;27.40;33.30
12481;DHT22;6305;48.398;11.762;2022-09-20T12:27:56;27.30;33.60
12481;DHT22;6305;48.398;11.762;2022-09-20T12:30:23;27.90;34.00
12481;DHT22;6305;48.398;11.762;2022-09-20T12:32:52;28.10;33.00
12481;DHT22;6305;48.398;11.762;2022-09-20T12:39:02;27.50;33.70
12481;DHT22;6305;48.398;11.762;2022-09-20T12:41:45;27.60;33.50
12481;DHT22;6305;48.398;11.762;2022-09-20T12:44:34;27.40;34.10
12481;DHT22;6305;48.398;11.762;2022-09-20T12:47:05;27.50;33.70
12481;DHT22;6305;48.398;11.762;2022-09-20T12:49:39;27.90;33.90
12481;DHT22;6305;48.398;11.762;2022-09-20T12:52:27;28.50;32.50
12481;DHT22;6305;48.398;11.762;2022-09-20T12:55:29;28.90;32.10
12481;DHT22;6305;48.398;11.762;2022-09-20T12:57:59;29.50;30.90
12481;DHT22;6305;48.398;11.762;2022-09-20T13:00:35;29.10;29.90
12481;DHT22;6305;48.398;11.762;2022-09-20T13:03:12;27.90;31.00
12481;DHT22;6305;48.398;11.762;2022-09-20T13:05:49;27.60;33.50
12481;DHT22;6305;48.398;11.762;2022-09-20T13:08:19;27.20;32.80
12481;DHT22;6305;48.398;11.762;2022-09-20T13:10:51;25.00;35.30
12481;DHT22;6305;48.398;11.762;2022-09-20T13:13:30;22.30;39.60
12481;DHT22;6305;48.398;11.762;2022-09-20T13:15:57;20.20;44.20
12481;DHT22;6305;48.398;11.762;2022-09-20T13:18:26;18.70;47.30
12481;DHT22;6305;48.398;11.762;2022-09-20T13:20:55;18.60;49.30
12481;DHT22;6305;48.398;11.762;2022-09-20T13:23:26;19.20;50.00
12481;DHT22;6305;48.398;11.762;2022-09-20T13:25:56;19.30;48.70
12481;DHT22;6305;48.398;11.762;2022-09-20T13:28:30;18.80;48.90
12481;DHT22;6305;48.398;11.762;2022-09-20T13:34:21;17.10;53.20
12481;DHT22;6305;48.398;11.762;2022-09-20T13:36:51;16.00;57.00
12481;DHT22;6305;48.398;11.762;2022-09-20T13:39:25;15.50;60.20
12481;DHT22;6305;48.398;11.762;2022-09-20T13:41:58;14.80;67.30
12481;DHT22;6305;48.398;11.762;2022-09-20T13:44:27;14.00;76.90
12481;DHT22;6305;48.398;11.762;2022-09-20T13:46:55;13.00;94.30
12481;DHT22;6305;48.398;11.762;2022-09-20T13:49:22;12.20;99.90
12481;DHT22;6305;48.398;11.762;2022-09-20T13:51:50;11.70;99.90
12481;DHT22;6305;48.398;11.762;2022-09-20T13:54:25;11.40;99.90
12481;DHT22;6305;48.398;11.762;2022-09-20T13:56:55;11.20;99.90
12481;DHT22;6305;48.398;11.762;2022-09-20T13:59:23;11.20;99.90
12481;DHT22;6305;48.398;11.762;2022-09-20T14:01:51;11.20;99.90
12481;DHT22;6305;48.398;11.762;2022-09-20T14:04:21;11.20;99.90
12481;DHT22;6305;48.398;11.762;2022-09-20T14:06:49;11.30;99.90
12481;DHT22;6305;48.398;11.762;2022-09-20T14:09:23;11.30;99.90
12481;DHT22;6305;48.398;11.762;2022-09-20T14:11:51;11.50;99.90
12481;DHT22;6305;48.398;11.762;2022-09-20T14:14:22;11.70;99.90
12481;DHT22;6305;48.398;11.762;2022-09-20T14:16:50;11.80;99.90
12481;DHT22;6305;48.398;11.762;2022-09-20T14:19:20;12.10;99.90
12481;DHT22;6305;48.398;11.762;2022-09-20T14:21:48;12.50;99.90
12481;DHT22;6305;48.398;11.762;2022-09-20T14:24:25;12.80;99.90
12481;DHT22;6305;48.398;11.762;2022-09-20T14:27:02;13.10;99.90
12481;DHT22;6305;48.398;11.762;2022-09-20T14:29:37;14.20;99.90
12481;DHT22;6305;48.398;11.762;2022-09-20T14:32:10;15.50;99.90
12481;DHT22;6305;48.398;11.762;2022-09-20T14:34:42;16.80;99.90
12481;DHT22;6305;48.398;11.762;2022-09-20T14:37:13;17.40;99.90
12481;DHT22;6305;48.398;11.762;2022-09-20T14:39:46;17.20;99.90
12481;DHT22;6305;48.398;11.762;2022-09-20T14:42:18;16.70;99.90
12481;DHT22;6305;48.398;11.762;2022-09-20T14:44:50;16.20;99.90
12481;DHT22;6305;48.398;11.762;2022-09-20T14:47:25;15.70;99.90
12481;DHT22;6305;48.398;11.762;2022-09-20T14:49:52;15.20;99.90
12481;DHT22;6305;48.398;11.762;2022-09-20T14:52:36;14.70;99.90
12481;DHT22;6305;48.398;11.762;2022-09-20T14:55:17;14.00;99.90
12481;DHT22;6305;48.398;11.762;2022-09-20T14:57:46;13.30;99.90
12481;DHT22;6305;48.398;11.762;2022-09-20T15:00:16;12.60;99.90
12481;DHT22;6305;48.398;11.762;2022-09-20T15:02:45;11.90;99.90
12481;DHT22;6305;48.398;11.762;2022-09-20T15:05:17;11.40;99.90
12481;DHT22;6305;48.398;11.762;2022-09-20T15:07:46;11.00;99.90
12481;DHT22;6305;48.398;11.762;2022-09-20T15:10:14;10.90;99.90
12481;DHT22;6305;48.398;11.762;2022-09-20T15:12:41;11.00;99.90
12481;DHT22;6305;48.398;11.762;2022-09-20T15:15:11;11.30;99.90
12481;DHT22;6305;48.398;11.762;2022-09-20T15:17:41;11.80;99.90
12481;DHT22;6305;48.398;11.762;2022-09-20T15:20:13;12.00;99.90
12481;DHT22;6305;48.398;11.762;2022-09-20T15:22:41;12.00;99.90
12481;DHT22;6305;48.398;11.762;2022-09-20T15:25:11;12.00;99.90
12481;DHT22;6305;48.398;11.762;2022-09-20T15:27:39;11.80;99.90
12481;DHT22;6305;48.398;11.762;2022-09-20T15:30:09;11.60;99.90
12481;DHT22;6305;48.398;11.762;2022-09-20T15:32:37;11.30;99.90
12481;DHT22;6305;48.398;11.762;2022-09-20T15:35:06;11.10;99.90
12481;DHT22;6305;48.398;11.762;2022-09-20T15:37:32;10.90;99.90
12481;DHT22;6305;48.398;11.762;2022-09-20T15:39:59;10.70;99.90
12481;DHT22;6305;48.398;11.762;2022-09-20T15:42:26;10.30;99.90
12481;DHT22;6305;48.398;11.762;2022-09-20T15:44:53;10.00;99.90
12481;DHT22;6305;48.398;11.762;2022-09-20T15:47:20;9.90;99.90
12481;DHT22;6305;48.398;11.762;2022-09-20T15:49:48;9.70;99.90
12481;DHT22;6305;48.398;11.762;2022-09-20T15:52:16;9.50;99.90
12481;DHT22;6305;48.398;11.762;2022-09-20T15:54:48;9.30;99.90
12481;DHT22;6305;48.398;11.762;2022-09-20T15:57:15;9.20;99.90
12481;DHT22;6305;48.398;11.762;2022-09-20T15:59:42;9.20;99.90
12481;DHT22;6305;48.398;11.762;2022-09-20T16:02:08;9.10;99.90
12481;DHT22;6305;48.398;11.762;2022-09-20T16:04:37;9.10;99.90
12481;DHT22;6305;48.398;11.762;2022-09-20T16:07:06;9.20;99.90
12481;DHT22;6305;48.398;11.762;2022-09-20T16:09:35;9.10;99.90
12481;DHT22;6305;48.398;11.762;2022-09-20T16:12:42;9.10;99.90
12481;DHT22;6305;48.398;11.762;2022-09-20T16:22:53;9.10;99.90
12481;DHT22;6305;48.398;11.762;2022-09-20T16:39:28;9.80;99.90
12481;DHT22;6305;48.398;11.762;2022-09-20T16:41:56;9.90;99.90
12481;DHT22;6305;48.398;11.762;2022-09-20T16:44:28;9.90;99.90
12481;DHT22;6305;48.398;11.762;2022-09-20T16:46:55;9.80;99.90
12481;DHT22;6305;48.398;11.762;2022-09-20T16:49:21;9.80;99.90
12481;DHT22;6305;48.398;11.762;2022-09-20T16:51:49;9.80;99.90
12481;DHT22;6305;48.398;11.762;2022-09-20T16:54:16;9.70;99.90
12481;DHT22;6305;48.398;11.762;2022-09-20T16:56:46;9.60;99.90
12481;DHT22;6305;48.398;11.762;2022-09-20T16:59:14;9.50;99.90
12481;DHT22;6305;48.398;11.762;2022-09-20T17:01:42;9.30;99.90
12481;DHT22;6305;48.398;11.762;2022-09-20T17:04:10;9.20;99.90
12481;DHT22;6305;48.398;11.762;2022-09-20T17:06:39;9.10;99.90
12481;DHT22;6305;48.398;11.762;2022-09-20T17:09:08;9.00;99.90
12481;DHT22;6305;48.398;11.762;2022-09-20T17:11:37;8.90;99.90
12481;DHT22;6305;48.398;11.762;2022-09-20T17:14:06;8.80;99.90
12481;DHT22;6305;48.398;11.762;2022-09-20T17:16:35;8.70;99.90
12481;DHT22;6305;48.398;11.762;2022-09-20T17:19:04;8.60;99.90